sensor_id;sensor_type;location;lat;lon;timestamp;temperature;humidity
46378;DHT22;32083;47.360;9.650;2024-01-11T00:03:16;0.70;99.90
46378;DHT22;32083;47.360;9.650;2024-01-11T00:05:51;0.60;99.90
46378;DHT22;32083;47.360;9.650;2024-01-11T00:08:17;0.50;99.90
46378;DHT22;32083;47.360;9.650;2024-01-11T00:10:48;0.40;99.90
46378;DHT22;32083;47.360;9.650;2024-01-11T00:13:17;0.30;99.90
46378;DHT22;32083;47.360;9.650;2024-01-11T00:15:45;0.40;99.90
46378;DHT22;32083;47.360;9.650;2024-01-11T00:18:14;0.40;99.90
46378;DHT22;32083;47.360;9.650;2024-01-11T00:20:45;0.40;99.90
46378;DHT22;32083;47.360;9.650;2024-01-11T00:23:11;0.20;99.90
46378;DHT22;32083;47.360;9.650;2024-01-11T00:25:39;0.20;99.90
46378;DHT22;32083;47.360;9.650;2024-01-11T00:28:11;0.20;99.90
46378;DHT22;32083;47.360;9.650;2024-01-11T00:30:42;0.10;99.90
46378;DHT22;32083;47.360;9.650;2024-01-11T00:33:07;0.10;99.90
46378;DHT22;32083;47.360;9.650;2024-01-11T00:35:34;0.10;99.90
46378;DHT22;32083;47.360;9.650;2024-01-11T00:38:00;0.10;99.90
46378;DHT22;32083;47.360;9.650;2024-01-11T00:40:28;0.10;99.90
46378;DHT22;32083;47.360;9.650;2024-01-11T00:42:57;0.10;99.90
46378;DHT22;32083;47.360;9.650;2024-01-11T00:45:27;0.20;99.90
46378;DHT22;32083;47.360;9.650;2024-01-11T00:47:53;0.20;99.90
46378;DHT22;32083;47.360;9.650;2024-01-11T00:50:21;0.20;99.90
46378;DHT22;32083;47.360;9.650;2024-01-11T00:52:50;0.30;99.90
46378;DHT22;32083;47.360;9.650;2024-01-11T00:55:18;0.20;99.90
46378;DHT22;32083;47.360;9.650;2024-01-11T00:57:46;0.30;99.90
46378;DHT22;32083;47.360;9.650;2024-01-11T01:00:12;0.40;99.90
46378;DHT22;32083;47.360;9.650;2024-01-11T01:02:44;0.40;99.90
46378;DHT22;32083;47.360;9.650;2024-01-11T01:05:09;0.40;99.90
46378;DHT22;32083;47.360;9.650;2024-01-11T01:07:38;0.50;99.90
46378;DHT22;32083;47.360;9.650;2024-01-11T01:10:07;0.50;99.90
46378;DHT22;32083;47.360;9.650;2024-01-11T01:12:36;0.50;99.90
46378;DHT22;32083;47.360;9.650;2024-01-11T01:15:02;0.50;99.90
46378;DHT22;32083;47.360;9.650;2024-01-11T01:17:28;0.50;99.90
46378;DHT22;32083;47.360;9.650;2024-01-11T01:19:54;0.40;99.90
46378;DHT22;32083;47.360;9.650;2024-01-11T01:22:22;0.50;99.90
46378;DHT22;32083;47.360;9.650;2024-01-11T01:24:48;0.40;99.90
46378;DHT22;32083;47.360;9.650;2024-01-11T01:27:18;0.50;99.90
46378;DHT22;32083;47.360;9.650;2024-01-11T01:29:46;0.50;99.90
46378;DHT22;32083;47.360;9.650;2024-01-11T01:32:12;0.40;99.90
46378;DHT22;32083;47.360;9.650;2024-01-11T01:34:40;0.40;99.90
46378;DHT22;32083;47.360;9.650;2024-01-11T01:37:06;0.30;99.90
46378;DHT22;32083;47.360;9.650;2024-01-11T01:39:32;0.40;99.90
46378;DHT22;32083;47.360;9.650;2024-01-11T01:41:58;0.30;99.90
46378;DHT22;32083;47.360;9.650;2024-01-11T01:44:27;0.30;99.90
46378;DHT22;32083;47.360;9.650;2024-01-11T01:46:55;0.30;99.90
46378;DHT22;32083;47.360;9.650;2024-01-11T01:49:26;0.40;99.90
46378;DHT22;32083;47.360;9.650;2024-01-11T01:51:57;0.30;99.90
46378;DHT22;32083;47.360;9.650;2024-01-11T01:54:34;0.30;99.90
46378;DHT22;32083;47.360;9.650;2024-01-11T01:57:09;0.30;99.90
46378;DHT22;32083;47.360;9.650;2024-01-11T01:59:38;0.40;99.90
46378;DHT22;32083;47.360;9.650;2024-01-11T02:02:05;0.40;99.90
46378;DHT22;32083;47.360;9.650;2024-01-11T02:04:37;0.40;99.90
46378;DHT22;32083;47.360;9.650;2024-01-11T02:07:06;0.30;99.90
46378;DHT22;32083;47.360;9.650;2024-01-11T02:09:33;0.30;99.90
46378;DHT22;32083;47.360;9.650;2024-01-11T02:12:02;0.30;99.90
46378;DHT22;32083;47.360;9.650;2024-01-11T02:14:32;0.30;99.90
46378;DHT22;32083;47.360;9.650;2024-01-11T02:17:00;0.20;99.90
46378;DHT22;32083;47.360;9.650;2024-01-11T02:19:30;0.20;99.90
46378;DHT22;32083;47.360;9.650;2024-01-11T02:22:02;0.20;99.90
46378;DHT22;32083;47.360;9.650;2024-01-11T02:24:35;0.30;99.90
46378;DHT22;32083;47.360;9.650;2024-01-11T02:27:07;0.30;99.90
46378;DHT22;32083;47.360;9.650;2024-01-11T02:29:41;0.40;99.90
46378;DHT22;32083;47.360;9.650;2024-01-11T02:32:07;0.40;99.90
46378;DHT22;32083;47.360;9.650;2024-01-11T02:34:36;0.30;99.90
46378;DHT22;32083;47.360;9.650;2024-01-11T02:37:02;0.30;99.90
46378;DHT22;32083;47.360;9.650;2024-01-11T02:39:31;0.30;99.90
46378;DHT22;32083;47.360;9.650;2024-01-11T02:42:07;0.30;99.90
46378;DHT22;32083;47.360;9.650;2024-01-11T02:44:33;0.20;99.90
46378;DHT22;32083;47.360;9.650;2024-01-11T02:47:01;0.20;99.90
46378;DHT22;32083;47.360;9.650;2024-01-11T02:49:27;0.10;99.90
46378;DHT22;32083;47.360;9.650;2024-01-11T02:51:53;0.20;99.90
46378;DHT22;32083;47.360;9.650;2024-01-11T02:54:21;0.20;99.90
46378;DHT22;32083;47.360;9.650;2024-01-11T02:56:49;0.30;99.90
46378;DHT22;32083;47.360;9.650;2024-01-11T02:59:15;0.30;99.90
46378;DHT22;32083;47.360;9.650;2024-01-11T03:01:41;0.30;99.90
46378;DHT22;32083;47.360;9.650;2024-01-11T03:04:10;0.20;99.90
46378;DHT22;32083;47.360;9.650;2024-01-11T03:06:36;0.10;99.90
46378;DHT22;32083;47.360;9.650;2024-01-11T03:09:05;0.10;99.90
46378;DHT22;32083;47.360;9.650;2024-01-11T03:11:33;0.20;99.90
46378;DHT22;32083;47.360;9.650;2024-01-11T03:13:59;0.30;99.90
46378;DHT22;32083;47.360;9.650;2024-01-11T03:16:25;0.30;99.90
46378;DHT22;32083;47.360;9.650;2024-01-11T03:18:50;0.30;99.90
46378;DHT22;32083;47.360;9.650;2024-01-11T03:21:16;0.30;99.90
46378;DHT22;32083;47.360;9.650;2024-01-11T03:23:44;0.40;99.90
46378;DHT22;32083;47.360;9.650;2024-01-11T03:26:17;0.40;99.90
46378;DHT22;32083;47.360;9.650;2024-01-11T03:28:43;0.40;99.90
46378;DHT22;32083;47.360;9.650;2024-01-11T03:31:10;0.40;99.90
46378;DHT22;32083;47.360;9.650;2024-01-11T03:33:38;0.40;99.90
46378;DHT22;32083;47.360;9.650;2024-01-11T03:36:08;0.50;99.90
46378;DHT22;32083;47.360;9.650;2024-01-11T03:38:34;0.50;99.90
46378;DHT22;32083;47.360;9.650;2024-01-11T03:41:14;0.40;99.90
46378;DHT22;32083;47.360;9.650;2024-01-11T03:43:40;0.50;99.90
46378;DHT22;32083;47.360;9.650;2024-01-11T03:46:09;0.50;99.90
46378;DHT22;32083;47.360;9.650;2024-01-11T03:48:37;0.60;99.90
46378;DHT22;32083;47.360;9.650;2024-01-11T03:51:04;0.50;99.90
46378;DHT22;32083;47.360;9.650;2024-01-11T03:53:35;0.50;99.90
46378;DHT22;32083;47.360;9.650;2024-01-11T03:56:02;0.60;99.90
46378;DHT22;32083;47.360;9.650;2024-01-11T03:58:28;0.50;99.90
46378;DHT22;32083;47.360;9.650;2024-01-11T04:00:54;0.40;99.90
46378;DHT22;32083;47.360;9.650;2024-01-11T04:03:23;0.30;99.90
46378;DHT22;32083;47.360;9.650;2024-01-11T04:05:49;0.30;99.90
46378;DHT22;32083;47.360;9.650;2024-01-11T04:08:14;0.20;99.90
46378;DHT22;32083;47.360;9.650;2024-01-11T04:10:40;0.20;99.90
46378;DHT22;32083;47.360;9.650;2024-01-11T04:13:09;0.20;99.90
46378;DHT22;32083;47.360;9.650;2024-01-11T04:15:35;0.20;99.90
46378;DHT22;32083;47.360;9.650;2024-01-11T04:18:04;0.20;99.90
46378;DHT22;32083;47.360;9.650;2024-01-11T04:20:29;0.30;99.90
46378;DHT22;32083;47.360;9.650;2024-01-11T04:22:57;0.30;99.90
46378;DHT22;32083;47.360;9.650;2024-01-11T04:25:26;0.30;99.90
46378;DHT22;32083;47.360;9.650;2024-01-11T04:27:56;0.30;99.90
46378;DHT22;32083;47.360;9.650;2024-01-11T04:30:22;0.30;99.90
46378;DHT22;32083;47.360;9.650;2024-01-11T04:32:48;0.30;99.90
46378;DHT22;32083;47.360;9.650;2024-01-11T04:35:14;0.30;99.90
46378;DHT22;32083;47.360;9.650;2024-01-11T04:37:42;0.20;99.90
46378;DHT22;32083;47.360;9.650;2024-01-11T04:40:15;0.10;99.90
46378;DHT22;32083;47.360;9.650;2024-01-11T04:42:41;0.10;99.90
46378;DHT22;32083;47.360;9.650;2024-01-11T04:45:09;0.10;99.90
46378;DHT22;32083;47.360;9.650;2024-01-11T04:47:40;0.20;99.90
46378;DHT22;32083;47.360;9.650;2024-01-11T04:50:07;0.20;99.90
46378;DHT22;32083;47.360;9.650;2024-01-11T04:52:33;0.30;99.90
46378;DHT22;32083;47.360;9.650;2024-01-11T04:55:01;0.20;99.90
46378;DHT22;32083;47.360;9.650;2024-01-11T04:57:27;0.20;99.90
46378;DHT22;32083;47.360;9.650;2024-01-11T04:59:53;0.10;99.90
46378;DHT22;32083;47.360;9.650;2024-01-11T05:02:22;0.20;99.90
46378;DHT22;32083;47.360;9.650;2024-01-11T05:04:48;0.20;99.90
46378;DHT22;32083;47.360;9.650;2024-01-11T05:07:17;0.30;99.90
46378;DHT22;32083;47.360;9.650;2024-01-11T05:09:45;0.40;99.90
46378;DHT22;32083;47.360;9.650;2024-01-11T05:12:11;0.40;99.90
46378;DHT22;32083;47.360;9.650;2024-01-11T05:14:37;0.40;99.90
46378;DHT22;32083;47.360;9.650;2024-01-11T05:17:06;0.30;99.90
46378;DHT22;32083;47.360;9.650;2024-01-11T05:19:34;0.30;99.90
46378;DHT22;32083;47.360;9.650;2024-01-11T05:22:02;0.40;99.90
46378;DHT22;32083;47.360;9.650;2024-01-11T05:24:31;0.40;99.90
46378;DHT22;32083;47.360;9.650;2024-01-11T05:26:57;0.40;99.90
46378;DHT22;32083;47.360;9.650;2024-01-11T05:29:26;0.30;99.90
46378;DHT22;32083;47.360;9.650;2024-01-11T05:31:54;0.30;99.90
46378;DHT22;32083;47.360;9.650;2024-01-11T05:34:24;0.30;99.90
46378;DHT22;32083;47.360;9.650;2024-01-11T05:36:50;0.20;99.90
46378;DHT22;32083;47.360;9.650;2024-01-11T05:39:21;0.00;99.90
46378;DHT22;32083;47.360;9.650;2024-01-11T05:41:49;0.10;99.90
46378;DHT22;32083;47.360;9.650;2024-01-11T05:44:17;0.00;99.90
46378;DHT22;32083;47.360;9.650;2024-01-11T05:46:44;-0.10;99.90
46378;DHT22;32083;47.360;9.650;2024-01-11T05:49:12;-0.20;99.90
46378;DHT22;32083;47.360;9.650;2024-01-11T05:51:41;-0.20;99.90
46378;DHT22;32083;47.360;9.650;2024-01-11T05:54:11;-0.30;99.90
46378;DHT22;32083;47.360;9.650;2024-01-11T05:56:39;-0.20;99.90
46378;DHT22;32083;47.360;9.650;2024-01-11T05:59:08;-0.30;99.90
46378;DHT22;32083;47.360;9.650;2024-01-11T06:01:47;-0.30;99.90
46378;DHT22;32083;47.360;9.650;2024-01-11T06:04:35;-0.30;99.90
46378;DHT22;32083;47.360;9.650;2024-01-11T06:07:17;-0.50;99.90
46378;DHT22;32083;47.360;9.650;2024-01-11T06:09:58;-0.50;99.90
46378;DHT22;32083;47.360;9.650;2024-01-11T06:12:37;-0.40;99.90
46378;DHT22;32083;47.360;9.650;2024-01-11T06:15:15;-0.50;99.90
46378;DHT22;32083;47.360;9.650;2024-01-11T06:17:55;-0.40;99.90
46378;DHT22;32083;47.360;9.650;2024-01-11T06:20:24;-0.50;99.90
46378;DHT22;32083;47.360;9.650;2024-01-11T06:23:01;-0.60;99.90
46378;DHT22;32083;47.360;9.650;2024-01-11T06:25:36;-0.60;99.90
46378;DHT22;32083;47.360;9.650;2024-01-11T06:28:07;-0.50;99.90
46378;DHT22;32083;47.360;9.650;2024-01-11T06:30:35;-0.50;99.90
46378;DHT22;32083;47.360;9.650;2024-01-11T06:33:14;-0.50;99.90
46378;DHT22;32083;47.360;9.650;2024-01-11T06:35:40;-0.60;99.90
46378;DHT22;32083;47.360;9.650;2024-01-11T06:40:37;-0.60;99.90
46378;DHT22;32083;47.360;9.650;2024-01-11T06:43:03;-0.80;99.90
46378;DHT22;32083;47.360;9.650;2024-01-11T06:45:30;-0.70;99.90
46378;DHT22;32083;47.360;9.650;2024-01-11T06:47:56;-0.80;99.90
46378;DHT22;32083;47.360;9.650;2024-01-11T06:50:22;-0.70;99.90
46378;DHT22;32083;47.360;9.650;2024-01-11T06:52:48;-0.80;99.90
46378;DHT22;32083;47.360;9.650;2024-01-11T06:55:14;-0.70;99.90
46378;DHT22;32083;47.360;9.650;2024-01-11T06:57:40;-0.70;99.90
46378;DHT22;32083;47.360;9.650;2024-01-11T07:00:07;-0.70;99.90
46378;DHT22;32083;47.360;9.650;2024-01-11T07:02:33;-0.70;99.90
46378;DHT22;32083;47.360;9.650;2024-01-11T07:04:59;-0.70;99.90
46378;DHT22;32083;47.360;9.650;2024-01-11T07:07:25;-0.70;99.90
46378;DHT22;32083;47.360;9.650;2024-01-11T07:09:52;-0.70;99.90
46378;DHT22;32083;47.360;9.650;2024-01-11T07:12:21;-0.70;99.90
46378;DHT22;32083;47.360;9.650;2024-01-11T07:14:47;-0.70;99.90
46378;DHT22;32083;47.360;9.650;2024-01-11T07:17:13;-0.70;99.90
46378;DHT22;32083;47.360;9.650;2024-01-11T07:19:39;-0.80;99.90
46378;DHT22;32083;47.360;9.650;2024-01-11T07:22:05;-0.80;99.90
46378;DHT22;32083;47.360;9.650;2024-01-11T07:24:31;-0.90;99.90
46378;DHT22;32083;47.360;9.650;2024-01-11T07:27:06;-0.80;99.90
46378;DHT22;32083;47.360;9.650;2024-01-11T07:29:33;-0.80;99.90
46378;DHT22;32083;47.360;9.650;2024-01-11T07:32:00;-0.80;99.90
46378;DHT22;32083;47.360;9.650;2024-01-11T07:34:27;-0.70;99.90
46378;DHT22;32083;47.360;9.650;2024-01-11T07:36:53;-0.90;99.90
46378;DHT22;32083;47.360;9.650;2024-01-11T07:39:19;-0.80;99.90
46378;DHT22;32083;47.360;9.650;2024-01-11T07:41:46;-0.90;99.90
46378;DHT22;32083;47.360;9.650;2024-01-11T07:44:12;-0.80;99.90
46378;DHT22;32083;47.360;9.650;2024-01-11T07:46:39;-0.80;99.90
46378;DHT22;32083;47.360;9.650;2024-01-11T07:49:05;-1.00;99.90
46378;DHT22;32083;47.360;9.650;2024-01-11T07:51:31;-1.10;99.90
46378;DHT22;32083;47.360;9.650;2024-01-11T07:53:58;-1.20;99.90
46378;DHT22;32083;47.360;9.650;2024-01-11T07:56:24;-1.00;99.90
46378;DHT22;32083;47.360;9.650;2024-01-11T07:58:50;-1.00;99.90
46378;DHT22;32083;47.360;9.650;2024-01-11T08:01:16;-1.00;99.90
46378;DHT22;32083;47.360;9.650;2024-01-11T08:03:42;-0.90;99.90
46378;DHT22;32083;47.360;9.650;2024-01-11T08:06:10;-0.90;99.90
46378;DHT22;32083;47.360;9.650;2024-01-11T08:08:40;-1.00;99.90
46378;DHT22;32083;47.360;9.650;2024-01-11T08:11:09;-1.00;99.90
46378;DHT22;32083;47.360;9.650;2024-01-11T08:13:36;-0.90;99.90
46378;DHT22;32083;47.360;9.650;2024-01-11T08:16:04;-0.80;99.90
46378;DHT22;32083;47.360;9.650;2024-01-11T08:18:33;-0.80;99.90
46378;DHT22;32083;47.360;9.650;2024-01-11T08:20:59;-0.80;99.90
46378;DHT22;32083;47.360;9.650;2024-01-11T08:23:25;-0.80;99.90
46378;DHT22;32083;47.360;9.650;2024-01-11T08:25:52;-0.80;99.90
46378;DHT22;32083;47.360;9.650;2024-01-11T08:28:21;-0.90;99.90
46378;DHT22;32083;47.360;9.650;2024-01-11T08:30:48;-0.90;99.90
46378;DHT22;32083;47.360;9.650;2024-01-11T08:33:14;-0.90;99.90
46378;DHT22;32083;47.360;9.650;2024-01-11T08:35:39;-0.80;99.90
46378;DHT22;32083;47.360;9.650;2024-01-11T08:38:06;-0.80;99.90
46378;DHT22;32083;47.360;9.650;2024-01-11T08:40:33;-0.70;99.90
46378;DHT22;32083;47.360;9.650;2024-01-11T08:42:59;-0.80;99.90
46378;DHT22;32083;47.360;9.650;2024-01-11T08:45:25;-0.80;99.90
46378;DHT22;32083;47.360;9.650;2024-01-11T08:47:51;-0.70;99.90
46378;DHT22;32083;47.360;9.650;2024-01-11T08:50:17;-0.80;99.90
46378;DHT22;32083;47.360;9.650;2024-01-11T08:52:43;-0.80;99.90
46378;DHT22;32083;47.360;9.650;2024-01-11T08:55:09;-0.90;99.90
46378;DHT22;32083;47.360;9.650;2024-01-11T08:57:35;-0.90;99.90
46378;DHT22;32083;47.360;9.650;2024-01-11T09:00:03;-0.80;99.90
46378;DHT22;32083;47.360;9.650;2024-01-11T09:02:29;-0.80;99.90
46378;DHT22;32083;47.360;9.650;2024-01-11T09:04:55;-0.80;99.90
46378;DHT22;32083;47.360;9.650;2024-01-11T09:07:21;-0.80;99.90
46378;DHT22;32083;47.360;9.650;2024-01-11T09:09:47;-0.80;99.90
46378;DHT22;32083;47.360;9.650;2024-01-11T09:12:13;-0.70;99.90
46378;DHT22;32083;47.360;9.650;2024-01-11T09:14:39;-0.80;99.90
46378;DHT22;32083;47.360;9.650;2024-01-11T09:17:05;-0.70;99.90
46378;DHT22;32083;47.360;9.650;2024-01-11T09:19:32;-0.70;99.90
46378;DHT22;32083;47.360;9.650;2024-01-11T09:22:03;-0.70;99.90
46378;DHT22;32083;47.360;9.650;2024-01-11T09:24:29;-0.70;99.90
46378;DHT22;32083;47.360;9.650;2024-01-11T09:26:54;-0.70;99.90
46378;DHT22;32083;47.360;9.650;2024-01-11T09:29:20;-0.80;99.90
46378;DHT22;32083;47.360;9.650;2024-01-11T09:31:46;-0.80;99.90
46378;DHT22;32083;47.360;9.650;2024-01-11T09:34:11;-0.80;99.90
46378;DHT22;32083;47.360;9.650;2024-01-11T09:36:38;-0.80;99.90
46378;DHT22;32083;47.360;9.650;2024-01-11T09:39:05;-0.80;99.90
46378;DHT22;32083;47.360;9.650;2024-01-11T09:41:37;-1.00;99.90
46378;DHT22;32083;47.360;9.650;2024-01-11T09:44:05;-0.90;99.90
46378;DHT22;32083;47.360;9.650;2024-01-11T09:46:31;-0.90;99.90
46378;DHT22;32083;47.360;9.650;2024-01-11T09:48:58;-0.90;99.90
46378;DHT22;32083;47.360;9.650;2024-01-11T09:51:26;-0.90;99.90
46378;DHT22;32083;47.360;9.650;2024-01-11T09:53:55;-0.80;99.90
46378;DHT22;32083;47.360;9.650;2024-01-11T09:56:24;-0.90;99.90
46378;DHT22;32083;47.360;9.650;2024-01-11T09:58:50;-0.80;99.90
46378;DHT22;32083;47.360;9.650;2024-01-11T10:01:16;-0.70;99.90
46378;DHT22;32083;47.360;9.650;2024-01-11T10:03:43;-0.80;99.90
46378;DHT22;32083;47.360;9.650;2024-01-11T10:06:10;-0.80;99.90
46378;DHT22;32083;47.360;9.650;2024-01-11T10:08:36;-1.00;99.90
46378;DHT22;32083;47.360;9.650;2024-01-11T10:11:03;-1.00;99.90
46378;DHT22;32083;47.360;9.650;2024-01-11T10:13:31;-1.00;99.90
46378;DHT22;32083;47.360;9.650;2024-01-11T10:16:09;-1.00;99.90
46378;DHT22;32083;47.360;9.650;2024-01-11T10:18:37;-1.00;99.90
46378;DHT22;32083;47.360;9.650;2024-01-11T10:21:03;-0.90;99.90
46378;DHT22;32083;47.360;9.650;2024-01-11T10:23:29;-0.90;99.90
46378;DHT22;32083;47.360;9.650;2024-01-11T10:26:00;-0.90;99.90
46378;DHT22;32083;47.360;9.650;2024-01-11T10:28:26;-1.00;99.90
46378;DHT22;32083;47.360;9.650;2024-01-11T10:30:53;-1.00;99.90
46378;DHT22;32083;47.360;9.650;2024-01-11T10:33:22;-1.10;99.90
46378;DHT22;32083;47.360;9.650;2024-01-11T10:35:49;-1.10;99.90
46378;DHT22;32083;47.360;9.650;2024-01-11T10:38:18;-1.00;99.90
46378;DHT22;32083;47.360;9.650;2024-01-11T10:40:44;-1.00;99.90
46378;DHT22;32083;47.360;9.650;2024-01-11T10:43:11;-1.00;99.90
46378;DHT22;32083;47.360;9.650;2024-01-11T10:45:37;-1.10;99.90
46378;DHT22;32083;47.360;9.650;2024-01-11T10:48:16;-1.10;99.90
46378;DHT22;32083;47.360;9.650;2024-01-11T10:50:46;-1.10;99.90
46378;DHT22;32083;47.360;9.650;2024-01-11T10:55:41;-1.20;99.90
46378;DHT22;32083;47.360;9.650;2024-01-11T10:58:08;-1.30;99.90
46378;DHT22;32083;47.360;9.650;2024-01-11T11:00:36;-1.20;99.90
46378;DHT22;32083;47.360;9.650;2024-01-11T11:03:03;-1.10;99.90
46378;DHT22;32083;47.360;9.650;2024-01-11T11:05:31;-1.20;99.90
46378;DHT22;32083;47.360;9.650;2024-01-11T11:08:01;-1.10;99.90
46378;DHT22;32083;47.360;9.650;2024-01-11T11:10:32;-1.10;99.90
46378;DHT22;32083;47.360;9.650;2024-01-11T11:13:00;-1.20;99.90
46378;DHT22;32083;47.360;9.650;2024-01-11T11:15:29;-1.20;99.90
46378;DHT22;32083;47.360;9.650;2024-01-11T11:17:55;-1.10;99.90
46378;DHT22;32083;47.360;9.650;2024-01-11T11:20:22;-1.10;99.90
46378;DHT22;32083;47.360;9.650;2024-01-11T11:23:04;-1.10;99.90
46378;DHT22;32083;47.360;9.650;2024-01-11T11:25:30;-1.00;99.90
46378;DHT22;32083;47.360;9.650;2024-01-11T11:27:58;-0.90;99.90
46378;DHT22;32083;47.360;9.650;2024-01-11T11:30:24;-0.80;99.90
46378;DHT22;32083;47.360;9.650;2024-01-11T11:32:51;-0.80;99.90
46378;DHT22;32083;47.360;9.650;2024-01-11T11:35:16;-0.80;99.90
46378;DHT22;32083;47.360;9.650;2024-01-11T11:37:42;-0.80;99.90
46378;DHT22;32083;47.360;9.650;2024-01-11T11:40:09;-0.80;99.90
46378;DHT22;32083;47.360;9.650;2024-01-11T11:42:39;-0.70;99.90
46378;DHT22;32083;47.360;9.650;2024-01-11T11:45:07;-0.90;99.90
46378;DHT22;32083;47.360;9.650;2024-01-11T11:47:37;-1.00;99.90
46378;DHT22;32083;47.360;9.650;2024-01-11T11:50:07;-1.00;99.90
46378;DHT22;32083;47.360;9.650;2024-01-11T11:52:36;-1.00;99.90
46378;DHT22;32083;47.360;9.650;2024-01-11T11:55:02;-1.00;99.90
46378;DHT22;32083;47.360;9.650;2024-01-11T11:57:29;-1.10;99.90
46378;DHT22;32083;47.360;9.650;2024-01-11T11:59:58;-1.00;99.90
46378;DHT22;32083;47.360;9.650;2024-01-11T12:02:25;-1.00;99.90
46378;DHT22;32083;47.360;9.650;2024-01-11T12:04:52;-0.90;99.90
46378;DHT22;32083;47.360;9.650;2024-01-11T12:07:20;-0.90;99.90
46378;DHT22;32083;47.360;9.650;2024-01-11T12:09:47;-0.80;99.90
46378;DHT22;32083;47.360;9.650;2024-01-11T12:12:13;-0.80;99.90
46378;DHT22;32083;47.360;9.650;2024-01-11T12:14:39;-0.90;99.90
46378;DHT22;32083;47.360;9.650;2024-01-11T12:17:07;-0.80;99.90
46378;DHT22;32083;47.360;9.650;2024-01-11T12:19:33;-0.80;99.90
46378;DHT22;32083;47.360;9.650;2024-01-11T12:21:59;-0.70;99.90
46378;DHT22;32083;47.360;9.650;2024-01-11T12:24:25;-0.80;99.90
46378;DHT22;32083;47.360;9.650;2024-01-11T12:26:52;-0.80;99.90
46378;DHT22;32083;47.360;9.650;2024-01-11T12:29:20;-0.70;99.90
46378;DHT22;32083;47.360;9.650;2024-01-11T12:31:46;-0.80;99.90
46378;DHT22;32083;47.360;9.650;2024-01-11T12:34:12;-1.00;99.90
46378;DHT22;32083;47.360;9.650;2024-01-11T12:36:39;-0.80;99.90
46378;DHT22;32083;47.360;9.650;2024-01-11T12:39:06;-0.80;99.90
46378;DHT22;32083;47.360;9.650;2024-01-11T12:41:32;-0.80;99.90
46378;DHT22;32083;47.360;9.650;2024-01-11T12:43:59;-0.70;99.90
46378;DHT22;32083;47.360;9.650;2024-01-11T12:46:25;-0.80;99.90
46378;DHT22;32083;47.360;9.650;2024-01-11T12:48:51;-0.80;99.90
46378;DHT22;32083;47.360;9.650;2024-01-11T12:51:17;-0.80;99.90
46378;DHT22;32083;47.360;9.650;2024-01-11T12:53:47;-1.00;99.90
46378;DHT22;32083;47.360;9.650;2024-01-11T12:56:15;-1.00;99.90
46378;DHT22;32083;47.360;9.650;2024-01-11T12:58:42;-1.00;99.90
46378;DHT22;32083;47.360;9.650;2024-01-11T13:01:08;-1.00;99.90
46378;DHT22;32083;47.360;9.650;2024-01-11T13:03:39;-1.10;99.90
46378;DHT22;32083;47.360;9.650;2024-01-11T13:06:08;-1.00;99.90
46378;DHT22;32083;47.360;9.650;2024-01-11T13:08:37;-1.00;99.90
46378;DHT22;32083;47.360;9.650;2024-01-11T13:11:06;-1.20;99.90
46378;DHT22;32083;47.360;9.650;2024-01-11T13:13:35;-1.30;99.90
46378;DHT22;32083;47.360;9.650;2024-01-11T13:16:02;-1.30;99.90
46378;DHT22;32083;47.360;9.650;2024-01-11T13:18:40;-1.30;99.90
46378;DHT22;32083;47.360;9.650;2024-01-11T13:21:07;-1.30;99.90
46378;DHT22;32083;47.360;9.650;2024-01-11T13:23:32;-1.20;99.90
46378;DHT22;32083;47.360;9.650;2024-01-11T13:25:59;-1.20;99.90
46378;DHT22;32083;47.360;9.650;2024-01-11T13:28:25;-1.40;99.90
46378;DHT22;32083;47.360;9.650;2024-01-11T13:30:52;-1.40;99.90
46378;DHT22;32083;47.360;9.650;2024-01-11T13:33:18;-1.40;99.90
46378;DHT22;32083;47.360;9.650;2024-01-11T13:35:45;-1.50;99.90
46378;DHT22;32083;47.360;9.650;2024-01-11T13:38:11;-1.50;99.90
46378;DHT22;32083;47.360;9.650;2024-01-11T13:40:37;-1.50;99.90
46378;DHT22;32083;47.360;9.650;2024-01-11T13:43:03;-1.50;99.90
46378;DHT22;32083;47.360;9.650;2024-01-11T13:45:30;-1.50;99.90
46378;DHT22;32083;47.360;9.650;2024-01-11T13:47:56;-1.50;99.90
46378;DHT22;32083;47.360;9.650;2024-01-11T13:50:22;-1.60;99.90
46378;DHT22;32083;47.360;9.650;2024-01-11T13:52:50;-1.50;99.90
46378;DHT22;32083;47.360;9.650;2024-01-11T13:55:16;-1.50;99.90
46378;DHT22;32083;47.360;9.650;2024-01-11T13:57:47;-1.40;99.90
46378;DHT22;32083;47.360;9.650;2024-01-11T14:00:14;-1.40;99.90
46378;DHT22;32083;47.360;9.650;2024-01-11T14:02:41;-1.40;99.90
46378;DHT22;32083;47.360;9.650;2024-01-11T14:05:07;-1.30;99.90
46378;DHT22;32083;47.360;9.650;2024-01-11T14:07:38;-1.20;99.90
46378;DHT22;32083;47.360;9.650;2024-01-11T14:10:05;-1.10;99.90
46378;DHT22;32083;47.360;9.650;2024-01-11T14:12:32;-1.20;99.90
46378;DHT22;32083;47.360;9.650;2024-01-11T14:14:57;-1.20;99.90
46378;DHT22;32083;47.360;9.650;2024-01-11T14:17:23;-1.10;99.90
46378;DHT22;32083;47.360;9.650;2024-01-11T14:19:49;-1.10;99.90
46378;DHT22;32083;47.360;9.650;2024-01-11T14:22:15;-1.10;99.90
46378;DHT22;32083;47.360;9.650;2024-01-11T14:24:41;-1.00;99.90
46378;DHT22;32083;47.360;9.650;2024-01-11T14:27:07;-1.10;99.90
46378;DHT22;32083;47.360;9.650;2024-01-11T14:29:35;-1.10;99.90
46378;DHT22;32083;47.360;9.650;2024-01-11T14:32:00;-1.20;99.90
46378;DHT22;32083;47.360;9.650;2024-01-11T14:34:26;-1.10;99.90
46378;DHT22;32083;47.360;9.650;2024-01-11T14:36:52;-1.10;99.90
46378;DHT22;32083;47.360;9.650;2024-01-11T14:39:18;-1.00;99.90
46378;DHT22;32083;47.360;9.650;2024-01-11T14:41:44;-1.00;99.90
46378;DHT22;32083;47.360;9.650;2024-01-11T14:44:11;-1.10;99.90
46378;DHT22;32083;47.360;9.650;2024-01-11T14:46:37;-1.00;99.90
46378;DHT22;32083;47.360;9.650;2024-01-11T14:49:02;-1.10;99.90
46378;DHT22;32083;47.360;9.650;2024-01-11T14:51:30;-1.00;99.90
46378;DHT22;32083;47.360;9.650;2024-01-11T14:53:59;-1.10;99.90
46378;DHT22;32083;47.360;9.650;2024-01-11T14:56:25;-1.10;99.90
46378;DHT22;32083;47.360;9.650;2024-01-11T14:58:51;-1.10;99.90
46378;DHT22;32083;47.360;9.650;2024-01-11T15:01:17;-1.10;99.90
46378;DHT22;32083;47.360;9.650;2024-01-11T15:03:43;-1.00;99.90
46378;DHT22;32083;47.360;9.650;2024-01-11T15:06:09;-1.00;99.90
46378;DHT22;32083;47.360;9.650;2024-01-11T15:08:35;-0.90;99.90
46378;DHT22;32083;47.360;9.650;2024-01-11T15:11:01;-1.00;99.90
46378;DHT22;32083;47.360;9.650;2024-01-11T15:13:26;-1.00;99.90
46378;DHT22;32083;47.360;9.650;2024-01-11T15:15:54;-1.10;99.90
46378;DHT22;32083;47.360;9.650;2024-01-11T15:18:20;-1.10;99.90
46378;DHT22;32083;47.360;9.650;2024-01-11T15:20:45;-1.00;99.90
46378;DHT22;32083;47.360;9.650;2024-01-11T15:23:11;-1.00;99.90
46378;DHT22;32083;47.360;9.650;2024-01-11T15:25:37;-1.00;99.90
46378;DHT22;32083;47.360;9.650;2024-01-11T15:28:03;-0.90;99.90
46378;DHT22;32083;47.360;9.650;2024-01-11T15:30:29;-1.00;99.90
46378;DHT22;32083;47.360;9.650;2024-01-11T15:32:55;-0.90;99.90
46378;DHT22;32083;47.360;9.650;2024-01-11T15:35:21;-1.00;99.90
46378;DHT22;32083;47.360;9.650;2024-01-11T15:37:46;-1.00;99.90
46378;DHT22;32083;47.360;9.650;2024-01-11T15:40:12;-1.10;99.90
46378;DHT22;32083;47.360;9.650;2024-01-11T15:42:38;-1.20;99.90
46378;DHT22;32083;47.360;9.650;2024-01-11T15:45:05;-1.20;99.90
46378;DHT22;32083;47.360;9.650;2024-01-11T15:47:34;-1.20;99.90